sensor_id;sensor_type;location;lat;lon;timestamp;P1;durP1;ratioP1;P2;durP2;ratioP2
3341;SDS011;1684;50.748;6.154;2023-02-13T00:01:38;25.40;;;11.80;;
3341;SDS011;1684;50.748;6.154;2023-02-13T00:04:08;17.70;;;9.60;;
3341;SDS011;1684;50.748;6.154;2023-02-13T00:06:36;17.90;;;11.00;;
3341;SDS011;1684;50.748;6.154;2023-02-13T00:09:05;17.60;;;10.07;;
3341;SDS011;1684;50.748;6.154;2023-02-13T00:11:36;17.43;;;9.90;;
3341;SDS011;1684;50.748;6.154;2023-02-13T00:14:04;20.07;;;9.07;;
3341;SDS011;1684;50.748;6.154;2023-02-13T00:16:33;19.63;;;10.97;;
3341;SDS011;1684;50.748;6.154;2023-02-13T00:19:01;18.63;;;10.87;;
3341;SDS011;1684;50.748;6.154;2023-02-13T00:21:31;20.40;;;10.33;;
3341;SDS011;1684;50.748;6.154;2023-02-13T00:23:59;19.50;;;11.30;;
3341;SDS011;1684;50.748;6.154;2023-02-13T00:26:27;18.33;;;10.27;;
3341;SDS011;1684;50.748;6.154;2023-02-13T00:28:56;23.07;;;12.77;;
3341;SDS011;1684;50.748;6.154;2023-02-13T00:31:24;18.93;;;9.70;;
3341;SDS011;1684;50.748;6.154;2023-02-13T00:33:52;24.13;;;10.90;;
3341;SDS011;1684;50.748;6.154;2023-02-13T00:36:21;22.10;;;10.73;;
3341;SDS011;1684;50.748;6.154;2023-02-13T00:38:52;20.57;;;11.80;;
3341;SDS011;1684;50.748;6.154;2023-02-13T00:41:20;21.17;;;10.90;;
3341;SDS011;1684;50.748;6.154;2023-02-13T00:43:48;23.50;;;12.00;;
3341;SDS011;1684;50.748;6.154;2023-02-13T00:46:17;21.23;;;11.50;;
3341;SDS011;1684;50.748;6.154;2023-02-13T00:48:45;22.63;;;10.60;;
3341;SDS011;1684;50.748;6.154;2023-02-13T00:51:13;27.50;;;12.77;;
3341;SDS011;1684;50.748;6.154;2023-02-13T00:53:42;23.90;;;11.60;;
3341;SDS011;1684;50.748;6.154;2023-02-13T00:56:11;24.57;;;13.43;;
3341;SDS011;1684;50.748;6.154;2023-02-13T00:58:40;23.20;;;13.43;;
3341;SDS011;1684;50.748;6.154;2023-02-13T01:01:08;20.90;;;10.57;;
3341;SDS011;1684;50.748;6.154;2023-02-13T01:03:36;19.93;;;11.63;;
3341;SDS011;1684;50.748;6.154;2023-02-13T01:06:05;27.97;;;12.90;;
3341;SDS011;1684;50.748;6.154;2023-02-13T01:08:33;30.13;;;13.33;;
3341;SDS011;1684;50.748;6.154;2023-02-13T01:11:02;25.20;;;13.10;;
3341;SDS011;1684;50.748;6.154;2023-02-13T01:13:31;25.33;;;11.63;;
3341;SDS011;1684;50.748;6.154;2023-02-13T01:16:00;22.63;;;11.60;;
3341;SDS011;1684;50.748;6.154;2023-02-13T01:18:28;24.93;;;12.27;;
3341;SDS011;1684;50.748;6.154;2023-02-13T01:20:57;21.17;;;11.67;;
3341;SDS011;1684;50.748;6.154;2023-02-13T01:23:28;22.07;;;11.23;;
3341;SDS011;1684;50.748;6.154;2023-02-13T01:25:56;27.20;;;11.50;;
3341;SDS011;1684;50.748;6.154;2023-02-13T01:28:25;21.33;;;10.27;;
3341;SDS011;1684;50.748;6.154;2023-02-13T01:30:55;21.40;;;10.80;;
3341;SDS011;1684;50.748;6.154;2023-02-13T01:33:25;20.70;;;11.07;;
3341;SDS011;1684;50.748;6.154;2023-02-13T01:35:54;21.90;;;11.37;;
3341;SDS011;1684;50.748;6.154;2023-02-13T01:38:22;21.10;;;11.00;;
3341;SDS011;1684;50.748;6.154;2023-02-13T01:40:51;19.93;;;12.13;;
3341;SDS011;1684;50.748;6.154;2023-02-13T01:43:20;19.63;;;9.83;;
3341;SDS011;1684;50.748;6.154;2023-02-13T01:45:49;21.67;;;11.50;;
3341;SDS011;1684;50.748;6.154;2023-02-13T01:48:21;15.93;;;10.47;;
3341;SDS011;1684;50.748;6.154;2023-02-13T01:50:52;17.53;;;10.80;;
3341;SDS011;1684;50.748;6.154;2023-02-13T01:53:24;22.43;;;10.87;;
3341;SDS011;1684;50.748;6.154;2023-02-13T01:55:54;18.00;;;10.00;;
3341;SDS011;1684;50.748;6.154;2023-02-13T01:58:27;19.97;;;10.33;;
3341;SDS011;1684;50.748;6.154;2023-02-13T02:00:56;25.33;;;12.70;;
3341;SDS011;1684;50.748;6.154;2023-02-13T02:03:28;23.63;;;10.80;;
3341;SDS011;1684;50.748;6.154;2023-02-13T02:05:58;19.27;;;10.57;;
3341;SDS011;1684;50.748;6.154;2023-02-13T02:08:26;18.27;;;9.80;;
3341;SDS011;1684;50.748;6.154;2023-02-13T02:10:55;18.57;;;12.03;;
3341;SDS011;1684;50.748;6.154;2023-02-13T02:13:24;14.53;;;10.40;;
3341;SDS011;1684;50.748;6.154;2023-02-13T02:15:53;23.83;;;11.50;;
3341;SDS011;1684;50.748;6.154;2023-02-13T02:18:21;20.67;;;9.90;;
3341;SDS011;1684;50.748;6.154;2023-02-13T02:26:31;17.20;;;11.07;;
3341;SDS011;1684;50.748;6.154;2023-02-13T02:29:13;17.23;;;9.87;;
3341;SDS011;1684;50.748;6.154;2023-02-13T02:32:00;18.10;;;9.80;;
3341;SDS011;1684;50.748;6.154;2023-02-13T02:34:32;16.67;;;8.80;;
3341;SDS011;1684;50.748;6.154;2023-02-13T02:37:06;17.47;;;10.27;;
3341;SDS011;1684;50.748;6.154;2023-02-13T02:39:41;20.73;;;10.73;;
3341;SDS011;1684;50.748;6.154;2023-02-13T02:42:14;15.20;;;9.80;;
3341;SDS011;1684;50.748;6.154;2023-02-13T02:44:47;18.57;;;9.50;;
3341;SDS011;1684;50.748;6.154;2023-02-13T02:47:22;18.57;;;9.07;;
3341;SDS011;1684;50.748;6.154;2023-02-13T02:50:17;15.37;;;8.43;;
3341;SDS011;1684;50.748;6.154;2023-02-13T02:52:55;19.70;;;8.70;;
3341;SDS011;1684;50.748;6.154;2023-02-13T02:55:28;17.50;;;8.77;;
3341;SDS011;1684;50.748;6.154;2023-02-13T02:58:01;17.57;;;9.73;;
3341;SDS011;1684;50.748;6.154;2023-02-13T03:00:48;15.40;;;8.47;;
3341;SDS011;1684;50.748;6.154;2023-02-13T03:03:36;13.73;;;7.60;;
3341;SDS011;1684;50.748;6.154;2023-02-13T03:06:23;17.93;;;8.17;;
3341;SDS011;1684;50.748;6.154;2023-02-13T03:08:53;15.63;;;8.27;;
3341;SDS011;1684;50.748;6.154;2023-02-13T03:11:40;19.10;;;9.17;;
3341;SDS011;1684;50.748;6.154;2023-02-13T03:14:26;17.47;;;8.20;;
3341;SDS011;1684;50.748;6.154;2023-02-13T03:16:55;15.70;;;7.20;;
3341;SDS011;1684;50.748;6.154;2023-02-13T03:19:56;16.93;;;8.80;;
3341;SDS011;1684;50.748;6.154;2023-02-13T03:22:50;14.60;;;8.20;;
3341;SDS011;1684;50.748;6.154;2023-02-13T03:25:24;13.83;;;8.37;;
3341;SDS011;1684;50.748;6.154;2023-02-13T03:28:01;14.63;;;7.90;;
3341;SDS011;1684;50.748;6.154;2023-02-13T03:30:53;16.33;;;7.27;;
3341;SDS011;1684;50.748;6.154;2023-02-13T03:33:35;12.70;;;8.00;;
3341;SDS011;1684;50.748;6.154;2023-02-13T03:36:10;18.03;;;8.00;;
3341;SDS011;1684;50.748;6.154;2023-02-13T03:38:57;13.10;;;6.37;;
3341;SDS011;1684;50.748;6.154;2023-02-13T03:41:29;17.23;;;7.23;;
3341;SDS011;1684;50.748;6.154;2023-02-13T03:43:59;14.80;;;7.60;;
3341;SDS011;1684;50.748;6.154;2023-02-13T03:46:29;16.97;;;8.37;;
3341;SDS011;1684;50.748;6.154;2023-02-13T03:48:58;17.67;;;7.37;;
3341;SDS011;1684;50.748;6.154;2023-02-13T03:51:48;13.60;;;7.20;;
3341;SDS011;1684;50.748;6.154;2023-02-13T03:54:19;11.00;;;6.63;;
3341;SDS011;1684;50.748;6.154;2023-02-13T03:57:02;13.17;;;6.57;;
3341;SDS011;1684;50.748;6.154;2023-02-13T03:59:48;9.40;;;5.63;;
3341;SDS011;1684;50.748;6.154;2023-02-13T04:02:18;11.20;;;6.57;;
3341;SDS011;1684;50.748;6.154;2023-02-13T04:04:48;13.70;;;6.70;;
3341;SDS011;1684;50.748;6.154;2023-02-13T04:07:20;17.13;;;7.03;;
3341;SDS011;1684;50.748;6.154;2023-02-13T04:09:56;15.60;;;7.23;;
3341;SDS011;1684;50.748;6.154;2023-02-13T04:12:26;12.37;;;6.00;;
3341;SDS011;1684;50.748;6.154;2023-02-13T04:14:58;11.27;;;5.70;;
3341;SDS011;1684;50.748;6.154;2023-02-13T04:17:30;9.60;;;5.53;;
3341;SDS011;1684;50.748;6.154;2023-02-13T04:20:00;10.90;;;6.20;;
3341;SDS011;1684;50.748;6.154;2023-02-13T04:22:30;10.67;;;4.87;;
3341;SDS011;1684;50.748;6.154;2023-02-13T04:24:58;11.10;;;5.37;;
3341;SDS011;1684;50.748;6.154;2023-02-13T04:27:27;9.47;;;5.47;;
3341;SDS011;1684;50.748;6.154;2023-02-13T04:29:55;11.70;;;5.70;;
3341;SDS011;1684;50.748;6.154;2023-02-13T04:32:24;10.50;;;5.10;;
3341;SDS011;1684;50.748;6.154;2023-02-13T04:34:52;10.83;;;5.73;;
3341;SDS011;1684;50.748;6.154;2023-02-13T04:37:20;8.33;;;5.03;;
3341;SDS011;1684;50.748;6.154;2023-02-13T04:39:52;10.23;;;5.00;;
3341;SDS011;1684;50.748;6.154;2023-02-13T04:42:20;12.13;;;6.50;;
3341;SDS011;1684;50.748;6.154;2023-02-13T04:44:49;11.23;;;6.10;;
3341;SDS011;1684;50.748;6.154;2023-02-13T04:47:17;9.47;;;5.83;;
3341;SDS011;1684;50.748;6.154;2023-02-13T04:49:45;7.93;;;5.77;;
3341;SDS011;1684;50.748;6.154;2023-02-13T04:52:14;9.40;;;5.37;;
3341;SDS011;1684;50.748;6.154;2023-02-13T04:54:42;12.10;;;5.57;;
3341;SDS011;1684;50.748;6.154;2023-02-13T04:57:12;11.30;;;6.30;;
3341;SDS011;1684;50.748;6.154;2023-02-13T04:59:40;10.33;;;6.47;;
3341;SDS011;1684;50.748;6.154;2023-02-13T05:02:08;12.73;;;6.70;;
3341;SDS011;1684;50.748;6.154;2023-02-13T05:04:37;9.80;;;5.00;;
3341;SDS011;1684;50.748;6.154;2023-02-13T05:07:05;12.40;;;5.97;;
3341;SDS011;1684;50.748;6.154;2023-02-13T05:09:33;10.27;;;5.23;;
3341;SDS011;1684;50.748;6.154;2023-02-13T05:12:02;10.10;;;5.67;;
3341;SDS011;1684;50.748;6.154;2023-02-13T05:14:31;15.13;;;6.17;;
3341;SDS011;1684;50.748;6.154;2023-02-13T05:17:00;10.93;;;6.90;;
3341;SDS011;1684;50.748;6.154;2023-02-13T05:19:28;11.63;;;4.90;;
3341;SDS011;1684;50.748;6.154;2023-02-13T05:21:56;8.23;;;4.93;;
3341;SDS011;1684;50.748;6.154;2023-02-13T05:24:43;10.97;;;5.40;;
3341;SDS011;1684;50.748;6.154;2023-02-13T05:27:11;10.17;;;5.33;;
3341;SDS011;1684;50.748;6.154;2023-02-13T05:29:44;8.10;;;4.80;;
3341;SDS011;1684;50.748;6.154;2023-02-13T05:32:12;9.00;;;4.20;;
3341;SDS011;1684;50.748;6.154;2023-02-13T05:34:41;9.97;;;4.43;;
3341;SDS011;1684;50.748;6.154;2023-02-13T05:37:09;6.40;;;4.37;;
3341;SDS011;1684;50.748;6.154;2023-02-13T05:39:37;8.87;;;4.40;;
3341;SDS011;1684;50.748;6.154;2023-02-13T05:42:06;10.03;;;5.60;;
3341;SDS011;1684;50.748;6.154;2023-02-13T05:44:35;8.90;;;4.13;;
3341;SDS011;1684;50.748;6.154;2023-02-13T05:47:05;7.07;;;4.33;;
3341;SDS011;1684;50.748;6.154;2023-02-13T05:49:33;8.67;;;4.43;;
3341;SDS011;1684;50.748;6.154;2023-02-13T05:52:02;10.40;;;5.23;;
3341;SDS011;1684;50.748;6.154;2023-02-13T05:54:30;8.33;;;4.90;;
3341;SDS011;1684;50.748;6.154;2023-02-13T05:56:59;8.57;;;4.80;;
3341;SDS011;1684;50.748;6.154;2023-02-13T05:59:27;9.57;;;4.63;;
3341;SDS011;1684;50.748;6.154;2023-02-13T06:02:08;8.00;;;4.10;;
3341;SDS011;1684;50.748;6.154;2023-02-13T06:04:36;8.40;;;4.67;;
3341;SDS011;1684;50.748;6.154;2023-02-13T06:07:06;7.93;;;4.20;;
3341;SDS011;1684;50.748;6.154;2023-02-13T06:09:34;10.53;;;4.90;;
3341;SDS011;1684;50.748;6.154;2023-02-13T06:12:03;10.00;;;5.27;;
3341;SDS011;1684;50.748;6.154;2023-02-13T06:14:31;8.47;;;4.63;;
3341;SDS011;1684;50.748;6.154;2023-02-13T06:17:00;7.70;;;5.10;;
3341;SDS011;1684;50.748;6.154;2023-02-13T06:19:30;6.60;;;4.43;;
3341;SDS011;1684;50.748;6.154;2023-02-13T06:21:58;9.50;;;5.00;;
3341;SDS011;1684;50.748;6.154;2023-02-13T06:24:27;9.40;;;5.03;;
3341;SDS011;1684;50.748;6.154;2023-02-13T06:26:55;10.60;;;6.13;;
3341;SDS011;1684;50.748;6.154;2023-02-13T06:29:24;7.73;;;4.73;;
3341;SDS011;1684;50.748;6.154;2023-02-13T06:31:52;7.47;;;4.53;;
3341;SDS011;1684;50.748;6.154;2023-02-13T06:34:21;10.00;;;5.50;;
3341;SDS011;1684;50.748;6.154;2023-02-13T06:36:50;13.00;;;5.17;;
3341;SDS011;1684;50.748;6.154;2023-02-13T06:39:19;10.17;;;4.90;;
3341;SDS011;1684;50.748;6.154;2023-02-13T06:41:47;11.10;;;4.90;;
3341;SDS011;1684;50.748;6.154;2023-02-13T06:44:15;7.73;;;4.63;;
3341;SDS011;1684;50.748;6.154;2023-02-13T06:46:44;8.30;;;4.00;;
3341;SDS011;1684;50.748;6.154;2023-02-13T06:49:12;7.97;;;4.10;;
3341;SDS011;1684;50.748;6.154;2023-02-13T06:51:41;9.77;;;4.87;;
3341;SDS011;1684;50.748;6.154;2023-02-13T06:54:10;9.00;;;4.20;;
3341;SDS011;1684;50.748;6.154;2023-02-13T06:56:39;9.33;;;4.40;;
3341;SDS011;1684;50.748;6.154;2023-02-13T06:59:07;8.90;;;4.00;;
3341;SDS011;1684;50.748;6.154;2023-02-13T07:01:35;7.17;;;3.70;;
3341;SDS011;1684;50.748;6.154;2023-02-13T07:04:04;6.60;;;3.90;;
3341;SDS011;1684;50.748;6.154;2023-02-13T07:06:32;5.10;;;3.37;;
3341;SDS011;1684;50.748;6.154;2023-02-13T07:09:01;8.73;;;4.13;;
3341;SDS011;1684;50.748;6.154;2023-02-13T07:11:31;7.33;;;4.13;;
3341;SDS011;1684;50.748;6.154;2023-02-13T07:13:59;8.83;;;4.10;;
3341;SDS011;1684;50.748;6.154;2023-02-13T07:16:27;8.10;;;4.30;;
3341;SDS011;1684;50.748;6.154;2023-02-13T07:18:56;8.23;;;4.13;;
3341;SDS011;1684;50.748;6.154;2023-02-13T07:21:24;7.93;;;4.30;;
3341;SDS011;1684;50.748;6.154;2023-02-13T07:23:53;7.00;;;4.00;;
3341;SDS011;1684;50.748;6.154;2023-02-13T07:26:21;12.57;;;5.23;;
3341;SDS011;1684;50.748;6.154;2023-02-13T07:28:53;10.30;;;5.17;;
3341;SDS011;1684;50.748;6.154;2023-02-13T07:31:36;9.80;;;4.23;;
3341;SDS011;1684;50.748;6.154;2023-02-13T07:34:05;8.63;;;4.77;;
3341;SDS011;1684;50.748;6.154;2023-02-13T07:36:33;7.43;;;4.90;;
3341;SDS011;1684;50.748;6.154;2023-02-13T07:39:02;10.17;;;4.67;;
3341;SDS011;1684;50.748;6.154;2023-02-13T07:41:30;10.00;;;4.97;;
3341;SDS011;1684;50.748;6.154;2023-02-13T07:44:00;9.70;;;6.20;;
3341;SDS011;1684;50.748;6.154;2023-02-13T07:46:28;8.67;;;4.53;;
3341;SDS011;1684;50.748;6.154;2023-02-13T07:48:57;9.83;;;5.87;;
3341;SDS011;1684;50.748;6.154;2023-02-13T07:51:25;9.20;;;5.60;;
3341;SDS011;1684;50.748;6.154;2023-02-13T07:53:54;10.67;;;5.50;;
3341;SDS011;1684;50.748;6.154;2023-02-13T07:56:23;8.70;;;5.00;;
3341;SDS011;1684;50.748;6.154;2023-02-13T07:58:51;7.70;;;5.10;;
3341;SDS011;1684;50.748;6.154;2023-02-13T08:01:21;9.43;;;4.80;;
3341;SDS011;1684;50.748;6.154;2023-02-13T08:03:49;13.03;;;5.30;;
3341;SDS011;1684;50.748;6.154;2023-02-13T08:06:18;9.73;;;6.20;;
3341;SDS011;1684;50.748;6.154;2023-02-13T08:08:47;13.83;;;7.33;;
3341;SDS011;1684;50.748;6.154;2023-02-13T08:11:35;9.50;;;5.23;;
3341;SDS011;1684;50.748;6.154;2023-02-13T08:14:21;11.00;;;5.77;;
3341;SDS011;1684;50.748;6.154;2023-02-13T08:16:51;22.43;;;8.40;;
3341;SDS011;1684;50.748;6.154;2023-02-13T08:19:20;18.50;;;5.77;;
3341;SDS011;1684;50.748;6.154;2023-02-13T08:21:48;10.23;;;6.30;;
3341;SDS011;1684;50.748;6.154;2023-02-13T08:24:17;21.63;;;7.00;;
3341;SDS011;1684;50.748;6.154;2023-02-13T08:26:45;12.60;;;6.70;;
3341;SDS011;1684;50.748;6.154;2023-02-13T08:29:15;11.87;;;5.30;;
3341;SDS011;1684;50.748;6.154;2023-02-13T08:31:43;11.87;;;6.37;;
3341;SDS011;1684;50.748;6.154;2023-02-13T08:34:13;10.20;;;6.40;;
3341;SDS011;1684;50.748;6.154;2023-02-13T08:36:42;12.60;;;7.43;;
3341;SDS011;1684;50.748;6.154;2023-02-13T08:39:10;14.77;;;8.37;;
3341;SDS011;1684;50.748;6.154;2023-02-13T08:41:38;10.20;;;6.40;;
3341;SDS011;1684;50.748;6.154;2023-02-13T08:44:08;14.73;;;7.47;;
3341;SDS011;1684;50.748;6.154;2023-02-13T08:46:36;12.30;;;8.60;;
3341;SDS011;1684;50.748;6.154;2023-02-13T08:49:05;13.53;;;7.53;;
3341;SDS011;1684;50.748;6.154;2023-02-13T08:51:35;14.50;;;7.97;;
3341;SDS011;1684;50.748;6.154;2023-02-13T08:54:03;11.60;;;6.47;;
3341;SDS011;1684;50.748;6.154;2023-02-13T08:56:31;8.33;;;5.20;;
3341;SDS011;1684;50.748;6.154;2023-02-13T08:59:00;12.70;;;8.50;;
3341;SDS011;1684;50.748;6.154;2023-02-13T09:01:29;11.77;;;6.80;;
3341;SDS011;1684;50.748;6.154;2023-02-13T09:03:57;10.43;;;5.67;;
3341;SDS011;1684;50.748;6.154;2023-02-13T09:06:26;13.40;;;7.10;;
3341;SDS011;1684;50.748;6.154;2023-02-13T09:08:56;9.40;;;5.17;;
3341;SDS011;1684;50.748;6.154;2023-02-13T09:11:25;15.47;;;8.27;;
3341;SDS011;1684;50.748;6.154;2023-02-13T09:13:53;8.83;;;4.93;;
3341;SDS011;1684;50.748;6.154;2023-02-13T09:16:22;12.33;;;6.07;;
3341;SDS011;1684;50.748;6.154;2023-02-13T09:18:50;10.57;;;5.73;;
3341;SDS011;1684;50.748;6.154;2023-02-13T09:21:19;8.77;;;5.43;;
3341;SDS011;1684;50.748;6.154;2023-02-13T09:23:48;10.63;;;5.33;;
3341;SDS011;1684;50.748;6.154;2023-02-13T09:26:19;9.53;;;5.53;;
3341;SDS011;1684;50.748;6.154;2023-02-13T09:28:47;9.70;;;5.80;;
3341;SDS011;1684;50.748;6.154;2023-02-13T09:31:17;8.80;;;4.77;;
3341;SDS011;1684;50.748;6.154;2023-02-13T09:33:46;7.63;;;4.60;;
3341;SDS011;1684;50.748;6.154;2023-02-13T09:36:15;9.40;;;5.20;;
3341;SDS011;1684;50.748;6.154;2023-02-13T09:38:45;9.50;;;4.80;;
3341;SDS011;1684;50.748;6.154;2023-02-13T09:41:14;8.87;;;5.17;;
3341;SDS011;1684;50.748;6.154;2023-02-13T09:43:45;9.67;;;5.77;;
3341;SDS011;1684;50.748;6.154;2023-02-13T09:46:16;10.93;;;5.57;;
3341;SDS011;1684;50.748;6.154;2023-02-13T09:48:46;9.80;;;5.30;;
3341;SDS011;1684;50.748;6.154;2023-02-13T09:51:16;10.80;;;4.33;;
3341;SDS011;1684;50.748;6.154;2023-02-13T09:53:46;10.93;;;4.90;;
3341;SDS011;1684;50.748;6.154;2023-02-13T09:56:16;8.40;;;4.90;;
3341;SDS011;1684;50.748;6.154;2023-02-13T09:58:50;9.77;;;5.73;;
3341;SDS011;1684;50.748;6.154;2023-02-13T10:01:24;11.77;;;7.17;;
3341;SDS011;1684;50.748;6.154;2023-02-13T10:03:59;10.57;;;5.07;;
3341;SDS011;1684;50.748;6.154;2023-02-13T10:06:34;9.47;;;5.80;;
3341;SDS011;1684;50.748;6.154;2023-02-13T10:09:16;8.47;;;5.60;;
3341;SDS011;1684;50.748;6.154;2023-02-13T10:12:10;9.10;;;5.40;;
3341;SDS011;1684;50.748;6.154;2023-02-13T10:14:44;10.60;;;5.60;;
3341;SDS011;1684;50.748;6.154;2023-02-13T10:17:17;9.10;;;5.10;;
3341;SDS011;1684;50.748;6.154;2023-02-13T10:19:47;12.00;;;5.90;;
3341;SDS011;1684;50.748;6.154;2023-02-13T10:22:18;9.33;;;5.90;;
3341;SDS011;1684;50.748;6.154;2023-02-13T10:24:47;9.30;;;5.60;;
3341;SDS011;1684;50.748;6.154;2023-02-13T10:27:19;8.50;;;5.83;;
3341;SDS011;1684;50.748;6.154;2023-02-13T10:29:54;8.30;;;5.43;;
3341;SDS011;1684;50.748;6.154;2023-02-13T10:32:35;9.47;;;5.20;;
3341;SDS011;1684;50.748;6.154;2023-02-13T10:35:09;7.93;;;5.10;;
3341;SDS011;1684;50.748;6.154;2023-02-13T10:37:43;10.60;;;5.83;;
3341;SDS011;1684;50.748;6.154;2023-02-13T10:40:17;10.93;;;7.10;;
3341;SDS011;1684;50.748;6.154;2023-02-13T10:42:47;13.70;;;6.13;;
3341;SDS011;1684;50.748;6.154;2023-02-13T10:45:25;8.00;;;4.50;;
3341;SDS011;1684;50.748;6.154;2023-02-13T10:48:01;11.87;;;5.07;;
3341;SDS011;1684;50.748;6.154;2023-02-13T10:50:33;10.40;;;5.60;;
3341;SDS011;1684;50.748;6.154;2023-02-13T10:53:07;10.80;;;6.60;;
3341;SDS011;1684;50.748;6.154;2023-02-13T10:58:30;12.30;;;6.47;;
3341;SDS011;1684;50.748;6.154;2023-02-13T11:01:04;11.30;;;6.27;;
3341;SDS011;1684;50.748;6.154;2023-02-13T11:03:33;9.57;;;5.47;;
3341;SDS011;1684;50.748;6.154;2023-02-13T11:06:04;9.67;;;5.53;;
3341;SDS011;1684;50.748;6.154;2023-02-13T11:08:34;11.97;;;6.27;;
3341;SDS011;1684;50.748;6.154;2023-02-13T11:13:49;14.03;;;6.70;;
3341;SDS011;1684;50.748;6.154;2023-02-13T11:16:39;10.40;;;5.80;;
3341;SDS011;1684;50.748;6.154;2023-02-13T11:19:13;10.23;;;5.83;;
3341;SDS011;1684;50.748;6.154;2023-02-13T11:21:43;8.30;;;5.40;;
3341;SDS011;1684;50.748;6.154;2023-02-13T11:24:20;10.87;;;6.70;;
3341;SDS011;1684;50.748;6.154;2023-02-13T11:26:52;11.23;;;5.90;;
3341;SDS011;1684;50.748;6.154;2023-02-13T11:29:22;9.07;;;5.93;;
3341;SDS011;1684;50.748;6.154;2023-02-13T11:32:01;13.43;;;6.50;;
3341;SDS011;1684;50.748;6.154;2023-02-13T11:34:31;10.90;;;5.83;;
3341;SDS011;1684;50.748;6.154;2023-02-13T11:39:43;9.20;;;4.10;;
3341;SDS011;1684;50.748;6.154;2023-02-13T11:42:14;11.63;;;5.80;;
3341;SDS011;1684;50.748;6.154;2023-02-13T11:44:43;9.90;;;6.80;;
3341;SDS011;1684;50.748;6.154;2023-02-13T11:47:16;9.40;;;5.07;;
3341;SDS011;1684;50.748;6.154;2023-02-13T11:49:56;9.60;;;5.97;;
3341;SDS011;1684;50.748;6.154;2023-02-13T11:52:26;13.57;;;6.23;;
3341;SDS011;1684;50.748;6.154;2023-02-13T11:54:55;9.60;;;5.57;;
3341;SDS011;1684;50.748;6.154;2023-02-13T11:57:27;9.27;;;6.50;;
3341;SDS011;1684;50.748;6.154;2023-02-13T11:59:56;10.90;;;6.33;;
3341;SDS011;1684;50.748;6.154;2023-02-13T12:02:26;8.40;;;5.40;;
3341;SDS011;1684;50.748;6.154;2023-02-13T12:07:38;13.03;;;6.13;;
3341;SDS011;1684;50.748;6.154;2023-02-13T12:10:10;10.80;;;5.50;;
3341;SDS011;1684;50.748;6.154;2023-02-13T12:12:44;9.93;;;6.07;;
3341;SDS011;1684;50.748;6.154;2023-02-13T12:15:14;10.27;;;6.10;;
3341;SDS011;1684;50.748;6.154;2023-02-13T12:17:46;12.33;;;6.60;;
3341;SDS011;1684;50.748;6.154;2023-02-13T12:20:15;9.90;;;6.57;;
3341;SDS011;1684;50.748;6.154;2023-02-13T12:22:47;15.77;;;8.00;;
3341;SDS011;1684;50.748;6.154;2023-02-13T12:25:33;12.67;;;7.07;;
3341;SDS011;1684;50.748;6.154;2023-02-13T12:28:09;11.40;;;6.60;;
3341;SDS011;1684;50.748;6.154;2023-02-13T12:30:42;11.03;;;6.00;;
3341;SDS011;1684;50.748;6.154;2023-02-13T12:33:18;18.93;;;8.83;;
3341;SDS011;1684;50.748;6.154;2023-02-13T12:35:51;9.57;;;6.77;;
3341;SDS011;1684;50.748;6.154;2023-02-13T12:38:26;7.80;;;4.97;;
3341;SDS011;1684;50.748;6.154;2023-02-13T12:41:11;9.07;;;5.37;;
3341;SDS011;1684;50.748;6.154;2023-02-13T12:43:46;12.60;;;6.70;;
3341;SDS011;1684;50.748;6.154;2023-02-13T12:46:22;9.93;;;5.70;;
3341;SDS011;1684;50.748;6.154;2023-02-13T12:48:58;10.73;;;6.27;;
3341;SDS011;1684;50.748;6.154;2023-02-13T12:51:32;10.40;;;5.30;;
3341;SDS011;1684;50.748;6.154;2023-02-13T12:54:07;12.30;;;5.30;;
3341;SDS011;1684;50.748;6.154;2023-02-13T12:56:51;15.60;;;8.80;;
3341;SDS011;1684;50.748;6.154;2023-02-13T12:59:24;8.80;;;6.10;;
3341;SDS011;1684;50.748;6.154;2023-02-13T13:04:48;11.90;;;6.67;;
3341;SDS011;1684;50.748;6.154;2023-02-13T13:07:24;10.80;;;5.90;;
3341;SDS011;1684;50.748;6.154;2023-02-13T13:09:58;13.20;;;7.03;;
3341;SDS011;1684;50.748;6.154;2023-02-13T13:12:30;11.23;;;6.40;;
3341;SDS011;1684;50.748;6.154;2023-02-13T13:15:02;12.53;;;7.13;;
3341;SDS011;1684;50.748;6.154;2023-02-13T13:17:37;10.50;;;6.90;;
3341;SDS011;1684;50.748;6.154;2023-02-13T13:20:21;9.60;;;5.07;;
3341;SDS011;1684;50.748;6.154;2023-02-13T13:22:54;14.47;;;7.50;;
3341;SDS011;1684;50.748;6.154;2023-02-13T13:25:24;11.70;;;7.10;;
3341;SDS011;1684;50.748;6.154;2023-02-13T13:27:54;11.33;;;7.60;;
3341;SDS011;1684;50.748;6.154;2023-02-13T13:30:25;11.80;;;5.37;;
3341;SDS011;1684;50.748;6.154;2023-02-13T13:32:56;9.23;;;6.53;;
3341;SDS011;1684;50.748;6.154;2023-02-13T13:35:28;10.87;;;7.20;;
3341;SDS011;1684;50.748;6.154;2023-02-13T13:37:59;15.00;;;8.30;;
3341;SDS011;1684;50.748;6.154;2023-02-13T13:40:36;11.10;;;7.00;;
3341;SDS011;1684;50.748;6.154;2023-02-13T13:43:11;11.37;;;6.80;;
3341;SDS011;1684;50.748;6.154;2023-02-13T13:45:41;11.60;;;7.13;;
3341;SDS011;1684;50.748;6.154;2023-02-13T13:48:16;11.50;;;7.50;;
3341;SDS011;1684;50.748;6.154;2023-02-13T13:50:48;11.37;;;6.40;;
3341;SDS011;1684;50.748;6.154;2023-02-13T13:53:17;11.87;;;6.97;;
3341;SDS011;1684;50.748;6.154;2023-02-13T13:55:57;11.83;;;6.80;;
3341;SDS011;1684;50.748;6.154;2023-02-13T13:58:30;12.30;;;5.83;;
3341;SDS011;1684;50.748;6.154;2023-02-13T14:01:15;13.97;;;8.27;;
3341;SDS011;1684;50.748;6.154;2023-02-13T14:03:44;11.97;;;6.93;;
3341;SDS011;1684;50.748;6.154;2023-02-13T14:06:14;11.57;;;7.10;;
3341;SDS011;1684;50.748;6.154;2023-02-13T14:08:53;9.90;;;4.50;;
3341;SDS011;1684;50.748;6.154;2023-02-13T14:11:30;10.17;;;6.80;;
3341;SDS011;1684;50.748;6.154;2023-02-13T14:13:59;12.60;;;7.07;;
3341;SDS011;1684;50.748;6.154;2023-02-13T14:16:37;12.80;;;6.40;;
3341;SDS011;1684;50.748;6.154;2023-02-13T14:19:21;13.87;;;7.67;;
3341;SDS011;1684;50.748;6.154;2023-02-13T14:21:51;14.90;;;8.30;;
3341;SDS011;1684;50.748;6.154;2023-02-13T14:24:21;13.50;;;8.20;;
3341;SDS011;1684;50.748;6.154;2023-02-13T14:26:52;14.77;;;8.97;;
3341;SDS011;1684;50.748;6.154;2023-02-13T14:29:31;12.83;;;7.47;;
3341;SDS011;1684;50.748;6.154;2023-02-13T14:34:56;18.50;;;9.93;;
3341;SDS011;1684;50.748;6.154;2023-02-13T14:37:36;17.43;;;9.00;;
3341;SDS011;1684;50.748;6.154;2023-02-13T14:43:01;18.67;;;10.40;;
3341;SDS011;1684;50.748;6.154;2023-02-13T14:45:34;14.03;;;8.20;;
3341;SDS011;1684;50.748;6.154;2023-02-13T14:48:10;14.30;;;8.10;;
3341;SDS011;1684;50.748;6.154;2023-02-13T14:50:43;14.43;;;8.27;;
3341;SDS011;1684;50.748;6.154;2023-02-13T14:53:18;11.93;;;7.40;;
3341;SDS011;1684;50.748;6.154;2023-02-13T14:55:49;14.40;;;7.67;;
3341;SDS011;1684;50.748;6.154;2023-02-13T14:58:19;14.07;;;9.10;;
3341;SDS011;1684;50.748;6.154;2023-02-13T15:00:51;17.20;;;10.17;;
3341;SDS011;1684;50.748;6.154;2023-02-13T15:03:23;15.07;;;8.90;;
3341;SDS011;1684;50.748;6.154;2023-02-13T15:05:53;13.30;;;7.33;;
3341;SDS011;1684;50.748;6.154;2023-02-13T15:08:23;16.67;;;9.87;;
3341;SDS011;1684;50.748;6.154;2023-02-13T15:10:52;15.03;;;8.63;;
3341;SDS011;1684;50.748;6.154;2023-02-13T15:13:22;14.37;;;9.10;;
3341;SDS011;1684;50.748;6.154;2023-02-13T15:15:55;17.73;;;7.80;;
3341;SDS011;1684;50.748;6.154;2023-02-13T15:18:24;15.70;;;9.03;;
3341;SDS011;1684;50.748;6.154;2023-02-13T15:20:54;16.03;;;9.40;;
3341;SDS011;1684;50.748;6.154;2023-02-13T15:23:26;14.90;;;8.87;;
3341;SDS011;1684;50.748;6.154;2023-02-13T15:25:56;14.30;;;9.20;;
3341;SDS011;1684;50.748;6.154;2023-02-13T15:28:26;17.17;;;10.23;;
3341;SDS011;1684;50.748;6.154;2023-02-13T15:30:56;15.00;;;8.77;;
3341;SDS011;1684;50.748;6.154;2023-02-13T15:33:26;16.93;;;9.80;;
3341;SDS011;1684;50.748;6.154;2023-02-13T15:35:55;16.50;;;9.90;;
3341;SDS011;1684;50.748;6.154;2023-02-13T15:38:28;14.27;;;8.47;;
3341;SDS011;1684;50.748;6.154;2023-02-13T15:40:58;13.83;;;8.13;;
3341;SDS011;1684;50.748;6.154;2023-02-13T15:43:31;12.67;;;7.17;;
3341;SDS011;1684;50.748;6.154;2023-02-13T15:46:02;16.33;;;8.63;;
3341;SDS011;1684;50.748;6.154;2023-02-13T15:48:32;12.80;;;8.07;;
3341;SDS011;1684;50.748;6.154;2023-02-13T15:51:00;15.10;;;9.10;;
3341;SDS011;1684;50.748;6.154;2023-02-13T15:53:31;17.93;;;7.90;;
3341;SDS011;1684;50.748;6.154;2023-02-13T15:56:01;13.30;;;8.70;;